createdAt,value
2018-09-20T00:01:04.425Z,15.20
2018-09-20T00:03:32.820Z,15.20
2018-09-20T00:08:29.592Z,15.20
2018-09-20T00:10:58.001Z,15.20
2018-09-20T00:13:26.481Z,15.20
2018-09-20T00:15:54.889Z,15.20
2018-09-20T00:18:23.309Z,15.20
2018-09-20T00:20:51.713Z,15.10
2018-09-20T00:23:20.157Z,15.10
2018-09-20T00:25:48.573Z,15.10
2018-09-20T00:28:16.997Z,15.00
2018-09-20T00:30:45.396Z,15.00
2018-09-20T00:33:13.824Z,14.90
2018-09-20T00:35:42.429Z,14.90
2018-09-20T00:38:10.852Z,14.90
2018-09-20T00:40:39.270Z,14.90
2018-09-20T00:43:07.680Z,14.90
2018-09-20T00:45:36.120Z,14.90
2018-09-20T00:48:04.610Z,14.90
2018-09-20T00:50:33.034Z,14.90
2018-09-20T00:53:01.442Z,14.90
2018-09-20T00:55:29.884Z,14.80
2018-09-20T00:57:58.349Z,14.70
2018-09-20T01:02:54.881Z,14.40
2018-09-20T01:05:23.576Z,14.20
2018-09-20T01:07:52.021Z,14.20
2018-09-20T01:10:20.488Z,14.10
2018-09-20T01:12:48.933Z,14.10
2018-09-20T01:15:17.386Z,14.10
2018-09-20T01:17:45.807Z,14.20
2018-09-20T01:20:14.221Z,14.20
2018-09-20T01:22:42.640Z,14.20
2018-09-20T01:25:11.067Z,14.20
2018-09-20T01:27:39.623Z,14.10
2018-09-20T01:30:08.144Z,14.10
2018-09-20T01:32:36.558Z,14.10
2018-09-20T01:35:05.197Z,14.10
2018-09-20T01:37:33.652Z,14.10
2018-09-20T01:40:02.058Z,14.10
2018-09-20T01:42:30.485Z,14.10
2018-09-20T01:44:58.908Z,14.10
2018-09-20T01:47:27.370Z,14.20
2018-09-20T01:49:55.783Z,14.10
2018-09-20T01:52:24.241Z,14.10
2018-09-20T01:54:52.689Z,14.10
2018-09-20T01:57:21.121Z,13.80
2018-09-20T01:59:49.545Z,13.70
2018-09-20T02:02:17.934Z,13.50
2018-09-20T02:04:46.350Z,13.50
2018-09-20T02:09:42.901Z,13.40
2018-09-20T02:12:11.293Z,13.40
2018-09-20T02:14:39.745Z,13.40
2018-09-20T02:17:08.157Z,13.50
2018-09-20T02:19:36.581Z,13.50
2018-09-20T02:22:05.033Z,13.50
2018-09-20T02:24:33.473Z,13.50
2018-09-20T02:29:30.016Z,13.50
2018-09-20T02:34:26.545Z,13.60
2018-09-20T02:39:23.093Z,13.70
2018-09-20T02:41:51.503Z,13.60
2018-09-20T02:46:48.027Z,13.60
2018-09-20T02:49:16.436Z,13.60
2018-09-20T02:51:44.847Z,13.60
2018-09-20T02:54:13.278Z,13.50
2018-09-20T02:56:41.712Z,13.40
2018-09-20T02:59:10.198Z,13.50
2018-09-20T03:01:38.571Z,13.40
2018-09-20T03:04:07.028Z,13.40
2018-09-20T03:06:35.432Z,13.40
2018-09-20T03:09:05.113Z,13.40
2018-09-20T03:11:33.522Z,13.30
2018-09-20T03:14:01.969Z,13.40
2018-09-20T03:16:30.355Z,13.40
2018-09-20T03:18:58.860Z,13.40
2018-09-20T03:21:27.263Z,13.30
2018-09-20T03:23:55.727Z,13.30
2018-09-20T03:26:24.415Z,13.30
2018-09-20T03:28:52.865Z,13.30
2018-09-20T03:31:21.302Z,13.30
2018-09-20T03:33:49.718Z,13.30
2018-09-20T03:38:46.321Z,13.30
2018-09-20T03:41:14.811Z,13.30
2018-09-20T03:43:43.209Z,13.30
2018-09-20T03:46:11.636Z,13.30
2018-09-20T03:48:40.049Z,13.30
2018-09-20T03:51:08.474Z,13.20
2018-09-20T03:53:36.883Z,13.20
2018-09-20T03:56:05.406Z,13.20
2018-09-20T03:58:33.769Z,13.20
2018-09-20T04:01:02.284Z,13.20
2018-09-20T04:03:30.762Z,13.20
2018-09-20T04:05:59.194Z,13.20
2018-09-20T04:08:27.722Z,13.20
2018-09-20T04:10:56.165Z,13.20
2018-09-20T04:13:24.602Z,13.10
2018-09-20T04:15:53.025Z,13.00
2018-09-20T04:18:21.433Z,13.00
2018-09-20T04:20:49.873Z,12.90
2018-09-20T04:23:18.288Z,12.80
2018-09-20T04:25:46.733Z,12.70
2018-09-20T04:28:15.132Z,12.70
2018-09-20T04:30:43.552Z,12.70
2018-09-20T04:33:11.955Z,12.70
2018-09-20T04:35:40.401Z,12.80
2018-09-20T04:38:08.809Z,12.80
2018-09-20T04:40:37.229Z,12.70
2018-09-20T04:43:06.041Z,12.70
2018-09-20T04:45:34.474Z,12.60
2018-09-20T04:48:02.887Z,12.50
2018-09-20T04:50:31.317Z,12.50
2018-09-20T04:55:27.813Z,12.50
2018-09-20T04:57:56.244Z,12.60
2018-09-20T05:00:24.633Z,12.60
2018-09-20T05:02:53.059Z,12.60
2018-09-20T05:05:21.493Z,12.60
2018-09-20T05:07:49.922Z,12.60
2018-09-20T05:10:18.361Z,12.60
2018-09-20T05:12:46.863Z,12.60
2018-09-20T05:15:15.259Z,12.70
2018-09-20T05:17:43.711Z,12.70
2018-09-20T05:20:12.202Z,12.90
2018-09-20T05:22:40.593Z,12.90
2018-09-20T05:25:09.046Z,13.00
2018-09-20T05:27:37.476Z,13.00
2018-09-20T05:30:06.229Z,13.00
2018-09-20T05:32:34.701Z,13.10
2018-09-20T05:35:03.133Z,13.20
2018-09-20T05:37:31.884Z,13.20
2018-09-20T05:40:00.293Z,13.30
2018-09-20T05:42:28.717Z,13.40
2018-09-20T05:47:25.413Z,13.60
2018-09-20T05:52:21.997Z,13.80
2018-09-20T05:54:50.429Z,13.90
2018-09-20T05:57:18.865Z,14.00
2018-09-20T05:59:47.280Z,14.10
2018-09-20T06:02:15.743Z,14.30
2018-09-20T06:04:44.140Z,14.30
2018-09-20T06:09:40.781Z,14.40
2018-09-20T06:12:09.208Z,14.50
2018-09-20T06:14:37.642Z,14.70
2018-09-20T06:17:06.123Z,14.90
2018-09-20T06:19:34.537Z,15.10
2018-09-20T06:22:03.030Z,15.70
2018-09-20T06:26:59.566Z,18.40
2018-09-20T06:29:27.987Z,20.30
2018-09-20T06:36:52.713Z,24.20
2018-09-20T06:39:21.101Z,25.10
2018-09-20T06:41:49.572Z,25.90
2018-09-20T06:44:17.960Z,26.80
2018-09-20T06:46:46.383Z,27.70
2018-09-20T06:49:14.861Z,28.30
2018-09-20T06:51:43.252Z,28.90
2018-09-20T06:54:11.750Z,29.30
2018-09-20T06:56:40.202Z,29.40
2018-09-20T06:59:08.636Z,28.90
2018-09-20T07:01:37.013Z,27.80
2018-09-20T07:04:05.444Z,27.00
2018-09-20T07:06:33.872Z,26.40
2018-09-20T07:11:30.495Z,26.30
2018-09-20T07:16:27.046Z,26.80
2018-09-20T07:18:55.502Z,27.20
2018-09-20T07:21:23.920Z,27.70
2018-09-20T07:23:52.333Z,28.20
2018-09-20T07:26:20.733Z,28.20
2018-09-20T07:28:49.157Z,27.60
2018-09-20T07:31:17.568Z,26.70
2018-09-20T07:33:46.042Z,25.30
2018-09-20T07:36:14.428Z,24.40
2018-09-20T07:38:42.929Z,24.10
2018-09-20T07:41:11.786Z,24.10
2018-09-20T07:43:40.296Z,24.00
2018-09-20T07:48:36.837Z,24.00
2018-09-20T07:51:05.290Z,24.20
2018-09-20T07:53:33.714Z,24.10
2018-09-20T07:56:02.164Z,24.30
2018-09-20T07:58:30.741Z,24.50
2018-09-20T08:00:59.199Z,25.00
2018-09-20T08:03:27.627Z,25.30
2018-09-20T08:05:56.067Z,25.50
2018-09-20T08:08:24.684Z,25.50
2018-09-20T08:10:53.128Z,25.70
2018-09-20T08:13:21.551Z,25.70
2018-09-20T08:15:49.989Z,25.80
2018-09-20T08:18:18.441Z,25.80
2018-09-20T08:20:47.348Z,25.70
2018-09-20T08:23:15.788Z,25.80
2018-09-20T08:25:44.208Z,25.70
2018-09-20T08:28:12.783Z,25.60
2018-09-20T08:30:41.240Z,25.60
2018-09-20T08:33:09.719Z,25.60
2018-09-20T08:35:38.188Z,25.60
2018-09-20T08:38:06.633Z,25.90
2018-09-20T08:40:35.080Z,26.50
2018-09-20T08:43:03.505Z,27.00
2018-09-20T08:45:31.940Z,27.80
2018-09-20T08:48:00.348Z,28.70
2018-09-20T08:50:28.780Z,29.90
2018-09-20T08:52:57.218Z,31.30
2018-09-20T08:55:25.668Z,32.60
2018-09-20T08:57:57.053Z,33.80
2018-09-20T09:00:26.489Z,34.20
2018-09-20T09:02:54.948Z,35.00
2018-09-20T09:07:51.504Z,36.60
2018-09-20T09:10:19.993Z,37.00
2018-09-20T09:12:48.409Z,37.90
2018-09-20T09:15:16.865Z,38.70
2018-09-20T09:17:45.457Z,38.00
2018-09-20T09:20:13.932Z,37.00
2018-09-20T09:22:42.319Z,37.30
2018-09-20T09:30:07.187Z,37.30
2018-09-20T09:32:35.585Z,37.60
2018-09-20T09:37:32.117Z,39.10
2018-09-20T09:40:00.553Z,39.40
2018-09-20T09:42:28.963Z,40.10
2018-09-20T09:44:57.381Z,40.90
2018-09-20T09:47:25.781Z,41.40
2018-09-20T09:49:54.239Z,42.40
2018-09-20T09:52:23.024Z,42.90
2018-09-20T09:54:51.488Z,42.40
2018-09-20T09:57:19.916Z,42.00
2018-09-20T09:59:48.374Z,42.00
2018-09-20T10:02:16.858Z,41.80
2018-09-20T10:04:45.289Z,41.40
2018-09-20T10:07:13.790Z,40.10
2018-09-20T10:09:42.389Z,39.20
2018-09-20T10:12:10.841Z,39.20
2018-09-20T10:14:39.235Z,39.20
2018-09-20T10:17:07.705Z,39.10
2018-09-20T10:19:36.097Z,39.30
2018-09-20T10:22:04.560Z,39.20
2018-09-20T10:24:32.957Z,39.10
2018-09-20T10:27:01.501Z,39.40
2018-09-20T10:29:29.921Z,38.50
2018-09-20T10:31:58.385Z,37.40
2018-09-20T10:34:26.760Z,36.70
2018-09-20T10:36:55.388Z,36.80
2018-09-20T10:39:23.772Z,37.20
2018-09-20T10:41:52.217Z,37.20
2018-09-20T10:44:20.621Z,36.60
2018-09-20T10:46:49.134Z,35.80
2018-09-20T10:49:17.532Z,34.80
2018-09-20T10:51:45.973Z,33.60
2018-09-20T10:54:14.373Z,32.20
2018-09-20T10:56:42.836Z,30.90
2018-09-20T10:59:11.245Z,29.60
2018-09-20T11:01:39.669Z,28.80
2018-09-20T11:04:08.107Z,28.10
2018-09-20T11:06:36.597Z,27.60
2018-09-20T11:09:07.787Z,27.10
2018-09-20T11:11:36.218Z,26.90
2018-09-20T11:14:04.665Z,26.80
2018-09-20T11:16:33.231Z,26.60
2018-09-20T11:21:29.785Z,26.70
2018-09-20T11:26:26.389Z,26.80
2018-09-20T11:28:54.793Z,26.80
2018-09-20T11:31:23.253Z,26.80
2018-09-20T11:33:51.665Z,26.80
2018-09-20T11:36:20.213Z,26.80
2018-09-20T11:38:48.588Z,26.70
2018-09-20T11:41:17.036Z,26.60
2018-09-20T11:46:13.568Z,26.30
2018-09-20T11:48:41.997Z,26.20
2018-09-20T11:56:06.886Z,26.00
2018-09-20T11:58:35.338Z,26.00
2018-09-20T12:01:03.765Z,26.00
2018-09-20T12:06:00.313Z,26.10
2018-09-20T12:08:29.309Z,26.00
2018-09-20T12:10:57.883Z,25.90
2018-09-20T12:13:26.337Z,25.90
2018-09-20T12:15:54.748Z,25.90
2018-09-20T12:18:23.168Z,25.90
2018-09-20T12:23:19.689Z,25.70
2018-09-20T12:25:48.141Z,25.70
2018-09-20T12:28:16.582Z,25.70
2018-09-20T12:30:45.018Z,25.80
2018-09-20T12:33:13.494Z,25.80
2018-09-20T12:35:42.008Z,25.80
2018-09-20T12:38:10.337Z,25.50
2018-09-20T12:40:38.751Z,25.40
2018-09-20T12:43:07.261Z,25.20
2018-09-20T12:45:35.642Z,25.40
2018-09-20T12:48:04.315Z,25.50
2018-09-20T12:50:32.729Z,25.50
2018-09-20T12:53:01.217Z,25.50
2018-09-20T12:55:29.661Z,25.60
2018-09-20T12:57:58.088Z,25.70
2018-09-20T13:00:31.928Z,25.70
2018-09-20T13:05:30.620Z,25.70
2018-09-20T13:07:59.062Z,25.70
2018-09-20T13:10:27.513Z,25.70
2018-09-20T13:12:55.969Z,25.70
2018-09-20T13:15:24.387Z,25.70
2018-09-20T13:17:55.830Z,25.70
2018-09-20T13:20:25.040Z,25.80
2018-09-20T13:22:53.478Z,25.80
2018-09-20T13:25:22.126Z,25.80
2018-09-20T13:27:50.536Z,25.90
2018-09-20T13:30:18.933Z,25.80
2018-09-20T13:32:48.574Z,25.80
2018-09-20T13:35:17.209Z,25.70
2018-09-20T13:37:45.653Z,25.60
2018-09-20T13:47:45.247Z,25.60
2018-09-20T13:50:13.700Z,25.60
2018-09-20T13:52:42.179Z,25.50
2018-09-20T13:55:10.624Z,25.50
2018-09-20T13:57:39.114Z,25.40
2018-09-20T14:10:03.565Z,25.60
2018-09-20T14:12:31.987Z,25.50
2018-09-20T14:15:02.886Z,25.50
2018-09-20T14:17:32.571Z,25.50
2018-09-20T14:22:29.148Z,25.60
2018-09-20T14:24:57.600Z,25.50
2018-09-20T14:27:26.040Z,25.40
2018-09-20T14:29:54.493Z,25.50
2018-09-20T14:32:22.941Z,25.50
2018-09-20T14:34:51.383Z,25.40
2018-09-20T14:37:19.801Z,25.40
2018-09-20T14:39:48.245Z,25.30
2018-09-20T14:42:16.727Z,25.30
2018-09-20T14:44:45.149Z,25.30
2018-09-20T14:47:13.624Z,25.30
2018-09-20T14:49:47.914Z,25.30
2018-09-20T14:52:16.930Z,25.30
2018-09-20T14:54:45.442Z,25.30
2018-09-20T14:57:14.509Z,25.30
2018-09-20T14:59:43.503Z,25.30
2018-09-20T15:02:11.994Z,25.20
2018-09-20T15:04:40.483Z,25.30
2018-09-20T15:07:13.201Z,25.30
2018-09-20T15:09:41.738Z,25.20
2018-09-20T15:12:10.142Z,25.20
2018-09-20T15:14:38.617Z,25.10
2018-09-20T15:17:07.052Z,25.10
2018-09-20T15:19:35.488Z,25.20
2018-09-20T15:22:03.869Z,25.10
2018-09-20T15:24:32.317Z,25.00
2018-09-20T15:27:00.788Z,25.00
2018-09-20T15:29:29.313Z,24.90
2018-09-20T15:31:57.712Z,24.90
2018-09-20T15:34:26.180Z,24.80
2018-09-20T15:36:54.590Z,24.70
2018-09-20T15:39:23.064Z,24.70
2018-09-20T15:41:51.513Z,24.70
2018-09-20T15:44:19.896Z,24.70
2018-09-20T15:46:48.344Z,24.60
2018-09-20T15:49:16.728Z,24.50
2018-09-20T15:51:45.196Z,24.40
2018-09-20T15:54:13.620Z,24.30
2018-09-20T15:59:10.175Z,24.20
2018-09-20T16:04:06.780Z,24.10
2018-09-20T16:06:35.200Z,24.00
2018-09-20T16:09:05.018Z,23.90
2018-09-20T16:11:33.469Z,23.80
2018-09-20T16:14:01.908Z,23.70
2018-09-20T16:18:58.433Z,23.60
2018-09-20T16:21:26.863Z,23.50
2018-09-20T16:26:23.370Z,23.40
2018-09-20T16:29:03.788Z,23.30
2018-09-20T16:31:52.227Z,23.30
2018-09-20T16:34:30.527Z,23.20
2018-09-20T16:37:12.509Z,23.20
2018-09-20T16:39:41.804Z,23.10
2018-09-20T16:42:11.017Z,23.10
2018-09-20T16:44:39.471Z,23.00
2018-09-20T16:47:07.903Z,22.90
2018-09-20T16:49:36.332Z,22.80
2018-09-20T16:52:04.791Z,22.70
2018-09-20T16:54:33.252Z,22.70
2018-09-20T16:57:01.638Z,22.50
2018-09-20T16:59:30.076Z,22.40
2018-09-20T17:04:26.610Z,22.30
2018-09-20T17:06:55.009Z,22.20
2018-09-20T17:11:51.593Z,22.00
2018-09-20T17:14:20.151Z,21.80
2018-09-20T17:16:48.553Z,21.60
2018-09-20T17:21:45.276Z,21.40
2018-09-20T17:24:13.717Z,21.30
2018-09-20T17:26:42.137Z,21.10
2018-09-20T17:29:10.547Z,21.00
2018-09-20T17:31:38.976Z,20.90
2018-09-20T17:34:07.665Z,20.90
2018-09-20T17:36:36.369Z,21.00
2018-09-20T17:39:08.887Z,20.90
2018-09-20T17:44:07.753Z,20.70
2018-09-20T17:46:36.217Z,20.60
2018-09-20T17:49:04.801Z,20.60
2018-09-20T17:51:33.859Z,20.60
2018-09-20T17:54:02.604Z,20.60
2018-09-20T17:56:31.982Z,20.50
2018-09-20T17:59:00.997Z,20.40
2018-09-20T18:01:29.464Z,20.30
2018-09-20T18:03:57.890Z,20.20
2018-09-20T18:06:26.319Z,20.10
2018-09-20T18:08:54.750Z,20.00
2018-09-20T18:13:51.293Z,19.80
2018-09-20T18:16:19.757Z,19.80
2018-09-20T18:18:48.166Z,19.80
2018-09-20T18:21:16.595Z,19.90
2018-09-20T18:26:13.144Z,19.80
2018-09-20T18:28:41.579Z,19.80
2018-09-20T18:31:10.016Z,19.80
2018-09-20T18:33:38.561Z,19.80
2018-09-20T18:36:07.047Z,19.70
2018-09-20T18:38:35.448Z,19.70
2018-09-20T18:43:31.968Z,19.60
2018-09-20T18:46:00.385Z,19.50
2018-09-20T18:48:28.795Z,19.40
2018-09-20T18:50:57.237Z,19.40
2018-09-20T18:53:25.678Z,19.40
2018-09-20T18:55:54.105Z,19.30
2018-09-20T18:58:22.545Z,19.20
2018-09-20T19:00:52.732Z,19.10
2018-09-20T19:03:21.678Z,19.00
2018-09-20T19:05:50.101Z,18.90
2018-09-20T19:10:46.937Z,18.70
2018-09-20T19:13:15.380Z,18.70
2018-09-20T19:15:43.790Z,18.60
2018-09-20T19:18:12.204Z,18.50
2018-09-20T19:20:40.868Z,18.40
2018-09-20T19:23:09.340Z,18.30
2018-09-20T19:25:37.793Z,18.30
2018-09-20T19:28:06.239Z,18.30
2018-09-20T19:31:03.314Z,18.30
2018-09-20T19:33:31.760Z,18.30
2018-09-20T19:36:00.161Z,18.20
2018-09-20T19:38:28.625Z,18.10
2018-09-20T19:40:57.108Z,18.10
2018-09-20T19:43:25.536Z,18.10
2018-09-20T19:45:53.937Z,18.00
2018-09-20T19:48:22.373Z,17.90
2018-09-20T19:50:50.805Z,17.90
2018-09-20T19:53:19.237Z,17.80
2018-09-20T19:55:47.632Z,17.70
2018-09-20T19:58:20.447Z,17.70
2018-09-20T20:00:48.834Z,17.70
2018-09-20T20:03:17.349Z,17.70
2018-09-20T20:05:45.772Z,17.60
2018-09-20T20:08:14.292Z,17.60
2018-09-20T20:10:42.794Z,17.50
2018-09-20T20:13:11.256Z,17.50
2018-09-20T20:15:39.666Z,17.40
2018-09-20T20:18:08.087Z,17.40
2018-09-20T20:20:36.494Z,17.40
2018-09-20T20:23:04.973Z,17.40
2018-09-20T20:25:33.431Z,17.30
2018-09-20T20:28:01.877Z,17.30
2018-09-20T20:30:30.280Z,17.30
2018-09-20T20:32:58.670Z,17.30
2018-09-20T20:35:27.121Z,17.30
2018-09-20T20:37:55.534Z,17.20
2018-09-20T20:42:52.082Z,17.10
2018-09-20T20:47:48.684Z,17.00
2018-09-20T20:50:17.208Z,17.00
2018-09-20T20:52:45.597Z,17.00
2018-09-20T20:55:14.135Z,17.00
2018-09-20T20:57:42.529Z,16.90
2018-09-20T21:00:10.941Z,16.90
2018-09-20T21:02:39.344Z,16.90
2018-09-20T21:07:35.889Z,16.70
2018-09-20T21:10:04.411Z,16.70
2018-09-20T21:12:33.065Z,16.60
2018-09-20T21:15:01.551Z,16.60
2018-09-20T21:17:29.996Z,16.60
2018-09-20T21:19:58.457Z,16.60
2018-09-20T21:22:26.901Z,16.50
2018-09-20T21:24:55.336Z,16.50
2018-09-20T21:27:23.820Z,16.40
2018-09-20T21:29:52.291Z,16.40
2018-09-20T21:32:20.729Z,16.40
2018-09-20T21:34:49.169Z,16.40
2018-09-20T21:37:17.580Z,16.30
2018-09-20T21:39:46.140Z,16.20
2018-09-20T21:42:14.555Z,16.20
2018-09-20T21:44:42.992Z,16.20
2018-09-20T21:47:11.444Z,16.20
2018-09-20T21:49:39.925Z,16.20
2018-09-20T21:52:08.356Z,16.20
2018-09-20T21:57:04.946Z,16.10
2018-09-20T21:59:33.397Z,16.10
2018-09-20T22:02:03.054Z,16.00
2018-09-20T22:04:32.352Z,16.00
2018-09-20T22:07:01.217Z,15.90
2018-09-20T22:09:30.362Z,15.90
2018-09-20T22:11:59.051Z,15.90
2018-09-20T22:14:27.458Z,15.80
2018-09-20T22:19:24.008Z,15.80
2018-09-20T22:21:52.442Z,15.70
2018-09-20T22:24:20.840Z,15.70
2018-09-20T22:26:49.548Z,15.60
2018-09-20T22:29:17.989Z,15.60
2018-09-20T22:31:46.404Z,15.60
2018-09-20T22:36:42.940Z,15.60
2018-09-20T22:39:11.740Z,15.60
2018-09-20T22:41:40.165Z,15.50
2018-09-20T22:44:08.621Z,15.50
2018-09-20T22:46:37.053Z,15.50
2018-09-20T22:49:05.585Z,15.50
2018-09-20T22:51:34.042Z,15.40
2018-09-20T22:54:02.460Z,15.40
2018-09-20T22:56:30.942Z,15.30
2018-09-20T22:58:59.329Z,15.30
2018-09-20T23:01:27.768Z,15.30
2018-09-20T23:03:56.203Z,15.20
2018-09-20T23:06:24.635Z,15.20
2018-09-20T23:08:53.344Z,15.10
2018-09-20T23:11:21.766Z,15.10
2018-09-20T23:13:50.179Z,15.00
2018-09-20T23:16:18.598Z,15.00
2018-09-20T23:18:47.025Z,15.00
2018-09-20T23:21:15.437Z,15.00
2018-09-20T23:23:43.825Z,15.10
2018-09-20T23:27:41.453Z,15.10
2018-09-20T23:30:10.642Z,15.00
2018-09-20T23:32:39.283Z,14.90
2018-09-20T23:35:07.693Z,14.90
2018-09-20T23:37:36.140Z,14.90
2018-09-20T23:40:04.613Z,14.90
2018-09-20T23:42:33.041Z,14.90
2018-09-20T23:45:01.473Z,14.80
2018-09-20T23:47:29.956Z,14.80
2018-09-20T23:49:58.355Z,14.70
2018-09-20T23:52:26.788Z,14.70
2018-09-20T23:54:55.260Z,14.60
2018-09-20T23:59:51.812Z,14.70
